Time;durP1;ratioP1;P1;durP2;ratioP2;P2;SDS_P1;SDS_P2;PMS_P1;PMS_P2;Temp;Humidity;BMP_temperature;BMP_pressure;BME280_temperature;BME280_humidity;BME280_pressure;Samples;Min_cycle;Max_cycle;Signal;HPM_P1;HPM_P2
2022/08/09 00:03:19;;;;;;;1999.90;999.90;;;;;;;20.13;45.61;99877.50;10022768;23;20363;-73
2022/08/09 00:07:42;;;;;;;1999.90;999.90;;;;;;;19.97;45.98;99881.59;10003471;23;20027;-75
2022/08/09 00:11:45;;;;;;;1999.90;999.90;;;;;;;19.82;46.64;99873.28;10028355;23;20304;-75
2022/08/09 00:16:04;;;;;;;1999.90;999.90;;;;;;;19.61;47.71;99882.78;10024099;23;20066;-75
2022/08/09 00:20:07;;;;;;;;;;;;;;;19.47;48.42;99868.31;10044149;23;20018;-75
2022/08/09 00:24:12;;;;;;;1999.90;999.90;;;;;;;19.39;48.67;99870.31;10043662;23;19958;-75
2022/08/09 00:28:15;;;;;;;1999.90;999.90;;;;;;;19.38;47.68;99873.84;10003637;23;20114;-75
2022/08/09 00:32:17;;;;;;;1999.90;999.90;;;;;;;19.38;47.18;99858.06;10023117;23;20027;-74
2022/08/09 00:36:28;;;;;;;1999.90;999.90;;;;;;;19.37;47.05;99857.19;10021376;23;20624;-75
2022/08/09 00:40:31;;;;;;;1999.90;999.90;;;;;;;19.35;47.43;99859.03;10027206;23;20018;-75
2022/08/09 00:44:37;;;;;;;1999.90;999.90;;;;;;;19.36;47.31;99849.34;10042623;23;20022;-74
2022/08/09 00:48:41;;;;;;;1999.90;999.90;;;;;;;19.25;48.25;99857.63;10022565;23;20034;-74
2022/08/09 00:52:51;;;;;;;1999.90;999.90;;;;;;;19.14;47.98;99859.72;10028321;23;20023;-74
2022/08/09 00:56:54;;;;;;;1999.90;999.90;;;;;;;19.11;48.33;99859.81;10043471;23;20082;-75
2022/08/09 01:00:56;;;;;;;1999.90;999.90;;;;;;;19.08;48.26;99863.41;10023815;23;20039;-74
2022/08/09 01:05:11;;;;;;;1999.90;999.90;;;;;;;19.07;47.96;99859.06;10028008;23;20015;-75
2022/08/09 01:09:33;;;;;;;1999.90;999.90;;;;;;;19.06;48.14;99861.75;10027893;23;20022;-75
2022/08/09 01:13:58;;;;;;;1999.90;999.90;;;;;;;19.04;47.83;99861.81;10027431;23;20029;-74
2022/08/09 01:18:13;;;;;;;1999.90;999.90;;;;;;;19.01;47.77;99864.50;10022316;23;20038;-74
2022/08/09 01:22:45;;;;;;;1999.90;999.90;;;;;;;19.01;47.48;99862.72;10027342;23;20473;-75
2022/08/09 01:27:09;;;;;;;1999.90;999.90;;;;;;;19.00;47.47;99862.78;10028213;23;20121;-74
2022/08/09 01:31:16;;;;;;;1999.90;999.90;;;;;;;18.98;47.30;99860.19;10034859;23;20456;-74
2022/08/09 01:36:00;;;;;;;1999.90;999.90;;;;;;;19.00;47.30;99857.53;10025894;23;20027;-75
2022/08/09 01:40:05;;;;;;;1999.90;999.90;;;;;;;18.98;47.22;99854.06;10026552;23;20034;-74
2022/08/09 01:44:08;;;;;;;1999.90;999.90;;;;;;;18.94;48.54;99862.97;10026876;23;20677;-74
2022/08/09 01:48:13;;;;;;;1999.90;999.90;;;;;;;18.57;50.04;99857.94;10025512;23;20037;-74
2022/08/09 01:52:18;;;;;;;1999.90;999.90;;;;;;;18.24;51.50;99863.25;10002234;23;20415;-74
2022/08/09 01:56:22;;;;;;;1999.90;999.90;;;;;;;18.00;52.14;99870.06;10026929;23;20058;-74
2022/08/09 02:00:25;;;;;;;1999.90;999.90;;;;;;;17.72;52.89;99871.69;9997056;23;20026;-74
2022/08/09 02:04:38;;;;;;;1999.90;999.90;;;;;;;17.49;54.19;99869.59;10032757;23;20023;-74
2022/08/09 02:08:46;;;;;;;1999.90;999.90;;;;;;;17.36;55.40;99874.28;10031994;23;20505;-74
2022/08/09 02:13:02;;;;;;;1999.90;999.90;;;;;;;17.15;55.87;99880.06;10030746;23;20543;-74
2022/08/09 02:17:08;;;;;;;1999.90;999.90;;;;;;;17.01;56.71;99877.75;10028287;23;20062;-74
2022/08/09 02:21:46;;;;;;;1999.90;999.90;;;;;;;16.74;57.28;99871.38;10010805;23;20061;-74
2022/08/09 02:25:59;;;;;;;1999.90;999.90;;;;;;;16.63;57.78;99873.31;10047760;23;20027;-74
2022/08/09 02:30:02;;;;;;;1999.90;999.90;;;;;;;16.53;58.07;99890.16;10007172;23;20023;-74
2022/08/09 02:34:15;;;;;;;1999.90;999.90;;;;;;;16.43;58.73;99883.34;10030471;23;20131;-74
2022/08/09 02:38:41;;;;;;;;;;;;;;;16.30;59.44;99883.59;10031332;23;20125;-74
2022/08/09 02:42:50;;;;;;;;;;;;;;;16.21;60.09;99873.31;10031759;23;19932;-74
2022/08/09 02:46:54;;;;;;;1999.90;999.90;;;;;;;16.13;60.33;99879.56;10028690;23;19921;-74
2022/08/09 02:50:59;;;;;;;1999.90;999.90;;;;;;;16.04;60.50;99877.13;10010344;23;20023;-74
2022/08/09 02:55:05;;;;;;;1999.90;999.90;;;;;;;15.97;60.77;99872.00;10035384;23;20023;-74
2022/08/09 02:59:24;;;;;;;1999.90;999.90;;;;;;;15.89;60.66;99878.28;10035983;23;20034;-74
2022/08/09 03:03:38;;;;;;;1999.90;999.90;;;;;;;15.78;61.08;99878.47;10028396;23;20073;-74
2022/08/09 03:08:01;;;;;;;1999.90;999.90;;;;;;;15.67;61.79;99886.53;10005296;23;20027;-74
2022/08/09 03:12:04;;;;;;;1999.90;999.90;;;;;;;15.56;62.30;99887.53;9980693;23;20109;-74
2022/08/09 03:16:13;;;;;;;1999.90;999.90;;;;;;;15.47;62.24;99887.72;10030119;23;20019;-74
2022/08/09 03:20:16;;;;;;;1999.90;999.90;;;;;;;15.43;62.98;99887.75;10030017;23;20023;-74
2022/08/09 03:24:17;;;;;;;;;;;;;;;15.29;62.55;99887.13;10030073;23;20105;-74
2022/08/09 03:28:40;;;;;;;1999.90;999.90;;;;;;;15.20;63.21;99891.63;10029184;23;19925;-74
2022/08/09 03:32:44;;;;;;;1999.90;999.90;;;;;;;15.11;63.26;99896.09;10024877;23;20042;-74
2022/08/09 03:36:46;;;;;;;1999.90;999.90;;;;;;;15.05;63.81;99898.78;10028686;23;20059;-74
2022/08/09 03:41:00;;;;;;;1999.90;999.90;;;;;;;14.94;64.08;99898.09;10028032;23;20050;-74
2022/08/09 03:45:04;;;;;;;1999.90;999.90;;;;;;;14.91;64.39;99898.16;10001044;23;20023;-74
2022/08/09 03:49:07;;;;;;;1999.90;999.90;;;;;;;14.82;64.46;99899.13;10027521;23;20177;-74
2022/08/09 03:53:10;;;;;;;1999.90;999.90;;;;;;;14.78;65.06;99896.56;10028686;23;20681;-74
2022/08/09 03:57:13;;;;;;;1999.90;999.90;;;;;;;14.71;65.39;99900.13;10029141;23;20403;-74
2022/08/09 04:01:21;;;;;;;1999.90;999.90;;;;;;;14.62;65.33;99905.50;10023443;23;20039;-74
2022/08/09 04:05:25;;;;;;;1999.90;999.90;;;;;;;14.52;65.68;99907.34;10028800;23;20365;-74
2022/08/09 04:09:28;;;;;;;1999.90;999.90;;;;;;;14.42;65.73;99903.09;10027902;23;20508;-74
2022/08/09 04:13:49;;;;;;;1999.90;999.90;;;;;;;14.38;66.19;99904.03;10027212;23;20026;-74
2022/08/09 04:18:12;;;;;;;1999.90;999.90;;;;;;;14.28;66.83;99908.47;10002719;23;20113;-74
2022/08/09 04:22:18;;;;;;;1999.90;999.90;;;;;;;14.23;67.48;99914.63;10028815;23;20027;-74
2022/08/09 04:26:21;;;;;;;1999.90;999.90;;;;;;;14.18;67.34;99915.56;10002406;23;20105;-74
2022/08/09 04:30:23;;;;;;;1999.90;999.90;;;;;;;14.19;67.47;99919.03;9974293;23;20061;-74
2022/08/09 04:34:32;;;;;;;1999.90;999.90;;;;;;;14.18;67.26;99923.41;10027179;23;20553;-74
2022/08/09 04:38:33;;;;;;;1999.90;999.90;;;;;;;14.18;67.77;99920.78;10044150;23;20026;-74
2022/08/09 04:42:37;;;;;;;1999.90;999.90;;;;;;;14.19;68.29;99927.75;10027476;23;20027;-74
2022/08/09 04:46:39;;;;;;;1999.90;999.90;;;;;;;14.26;67.85;99919.81;9998411;23;20086;-75
2022/08/09 04:50:58;;;;;;;1999.90;999.90;;;;;;;14.32;68.68;99927.59;10026422;23;20033;-74
2022/08/09 04:55:00;;;;;;;1999.90;999.90;;;;;;;14.38;68.12;99919.69;10028105;23;20019;-74
2022/08/09 04:59:04;;;;;;;1999.90;999.90;;;;;;;14.45;68.01;99937.06;10026591;23;20019;-74
2022/08/09 05:03:16;;;;;;;1999.90;999.90;;;;;;;14.61;67.84;99938.63;9997401;23;20095;-74
2022/08/09 05:07:37;;;;;;;1999.90;999.90;;;;;;;14.64;67.18;99938.56;9998907;23;20134;-74
2022/08/09 05:11:40;;;;;;;1999.90;999.90;;;;;;;14.77;66.28;99944.53;10027385;23;20027;-74
2022/08/09 05:15:43;;;;;;;1999.90;999.90;;;;;;;14.93;66.64;99942.56;9975454;23;20032;-74
2022/08/09 05:19:57;;;;;;;1999.90;999.90;;;;;;;15.11;66.83;99937.09;9982122;23;20026;-75
2022/08/09 05:23:58;;;;;;;1999.90;999.90;;;;;;;15.23;67.01;99946.50;10002889;23;20904;-74
2022/08/09 05:28:02;;;;;;;1999.90;999.90;;;;;;;15.42;66.63;99951.44;10002017;23;20620;-74
2022/08/09 05:32:04;;;;;;;1999.90;999.90;;;;;;;15.58;65.78;99943.34;9996898;23;20065;-74
2022/08/09 05:36:06;;;;;;;1999.90;999.90;;;;;;;15.80;65.67;99949.13;10015965;23;20674;-73
2022/08/09 05:40:08;;;;;;;1999.90;999.90;;;;;;;16.50;63.75;99946.09;10027297;23;20077;-74
2022/08/09 05:44:10;;;;;;;1999.90;999.90;;;;;;;17.26;61.49;99946.28;10025349;23;20058;-74
2022/08/09 05:48:11;;;;;;;1999.90;999.90;;;;;;;17.84;59.34;99941.44;10024657;23;20034;-74
2022/08/09 05:52:15;;;;;;;1999.90;999.90;;;;;;;18.45;57.46;99947.69;10026761;23;20274;-74
2022/08/09 05:56:17;;;;;;;1999.90;999.90;;;;;;;18.66;56.81;99947.97;10025404;23;20048;-75
2022/08/09 06:00:28;;;;;;;1999.90;999.90;;;;;;;18.80;56.54;99950.22;10021357;23;20114;-74
2022/08/09 06:04:30;;;;;;;1999.90;999.90;;;;;;;19.06;56.38;99960.00;10025885;23;20518;-74
2022/08/09 06:08:35;;;;;;;1999.90;999.90;;;;;;;19.56;55.47;99965.50;10026458;23;20476;-74
2022/08/09 06:12:37;;;;;;;1999.90;999.90;;;;;;;20.11;53.70;99967.19;10024939;23;20732;-76
2022/08/09 06:16:39;;;;;;;1999.90;999.90;;;;;;;20.59;51.25;99961.13;10019726;23;20065;-76
2022/08/09 06:20:42;;;;;;;1999.90;999.90;;;;;;;21.06;49.66;99967.28;10023904;23;20027;-76
2022/08/09 06:24:54;;;;;;;1999.90;999.90;;;;;;;21.69;48.07;99975.41;10024769;23;20122;-75
2022/08/09 06:28:56;;;;;;;1999.90;999.90;;;;;;;22.14;46.88;99972.69;10023683;23;20030;-75
2022/08/09 06:33:01;;;;;;;1999.90;999.90;;;;;;;22.46;46.02;99973.94;10020424;23;20054;-75
2022/08/09 06:37:23;;;;;;;1999.90;999.90;;;;;;;22.78;45.26;99975.13;9999796;23;20061;-75
2022/08/09 06:41:29;;;;;;;1999.90;999.90;;;;;;;23.27;42.90;99980.88;10001190;23;20033;-76
2022/08/09 06:45:50;;;;;;;1999.90;999.90;;;;;;;23.63;42.79;99988.03;10019538;23;20533;-76
2022/08/09 06:50:11;;;;;;;1999.90;999.90;;;;;;;24.00;41.21;99979.97;9999876;23;20033;-76
2022/08/09 06:54:17;;;;;;;1999.90;999.90;;;;;;;24.34;39.73;99984.47;10002068;23;20470;-77
2022/08/09 06:58:21;;;;;;;1999.90;999.90;;;;;;;24.59;38.77;99988.47;10025600;23;20730;-76
2022/08/09 07:02:43;;;;;;;1999.90;999.90;;;;;;;24.94;37.61;99992.78;10020162;23;20292;-76
2022/08/09 07:06:47;;;;;;;1999.90;999.90;;;;;;;25.24;37.20;100000.94;10024868;23;20031;-76
2022/08/09 07:10:54;;;;;;;1999.90;999.90;;;;;;;25.54;36.53;99987.72;10016307;23;20303;-76
2022/08/09 07:14:55;;;;;;;;;;;;;;;25.93;36.07;100002.38;10023352;23;20058;-76
2022/08/09 07:18:56;;;;;;;1999.90;999.90;;;;;;;26.17;35.57;100002.75;10019293;23;19976;-75
2022/08/09 07:22:58;;;;;;;;;;;;;;;26.38;34.67;99998.84;9998837;23;20053;-76
2022/08/09 07:27:01;;;;;;;1999.90;999.90;;;;;;;26.71;34.19;99992.44;10023426;23;20183;-76
2022/08/09 07:31:03;;;;;;;1999.90;999.90;;;;;;;26.90;32.90;99997.47;9995010;23;20026;-76
2022/08/09 07:35:08;;;;;;;1999.90;999.90;;;;;;;27.14;32.52;99996.00;10027506;23;20089;-76
2022/08/09 07:39:12;;;;;;;1999.90;999.90;;;;;;;27.38;31.54;99994.41;10026601;23;20030;-75
2022/08/09 07:43:20;;;;;;;1999.90;999.90;;;;;;;27.61;31.04;99997.41;10028171;23;20366;-74
2022/08/09 07:47:29;;;;;;;1999.90;999.90;;;;;;;27.85;31.09;99997.66;10025192;23;20070;-74
2022/08/09 07:51:50;;;;;;;1999.90;999.90;;;;;;;28.12;30.24;99994.94;10027971;23;20033;-74
2022/08/09 07:56:11;;;;;;;;;;;;;;;28.37;29.91;99999.50;10025861;23;20034;-74
2022/08/09 08:00:31;;;;;;;1999.90;999.90;;;;;;;28.57;29.55;100001.69;9999925;23;19984;-74
2022/08/09 08:04:37;;;;;;;1999.90;999.90;;;;;;;28.86;29.52;100008.56;10026432;23;20030;-75
2022/08/09 08:08:39;;;;;;;1999.90;999.90;;;;;;;29.12;28.87;100008.53;10027071;23;20019;-75
2022/08/09 08:13:01;;;;;;;1999.90;999.90;;;;;;;29.30;28.23;100006.38;10005099;23;20106;-75
2022/08/09 08:17:04;;;;;;;1999.90;999.90;;;;;;;29.43;28.13;100005.34;10023275;23;20038;-75
2022/08/09 08:21:12;;;;;;;1999.90;999.90;;;;;;;29.46;27.81;100002.50;10027093;23;20061;-75
2022/08/09 08:25:14;;;;;;;1999.90;999.90;;;;;;;29.61;27.68;100005.00;10027310;23;20019;-74
2022/08/09 08:29:18;;;;;;;1999.90;999.90;;;;;;;29.75;27.65;100002.16;10025091;23;20023;-75
2022/08/09 08:33:27;;;;;;;1999.90;999.90;;;;;;;29.85;27.47;100000.53;10020405;23;20027;-75
2022/08/09 08:37:49;;;;;;;;;;;;;;;30.11;27.11;100001.25;10001673;23;20034;-75
2022/08/09 08:42:11;;;;;;;1999.90;999.90;;;;;;;30.19;26.66;99998.88;10026657;23;19922;-75
2022/08/09 08:46:16;;;;;;;1999.90;999.90;;;;;;;30.30;26.08;99992.69;10021968;23;20035;-75
2022/08/09 08:50:36;;;;;;;1999.90;999.90;;;;;;;30.38;26.06;99995.63;10000966;23;20082;-75
2022/08/09 08:54:39;;;;;;;1999.90;999.90;;;;;;;30.41;25.87;99991.88;10026882;23;20062;-75
2022/08/09 08:58:42;;;;;;;1999.90;999.90;;;;;;;30.46;26.09;99995.88;10026987;23;20752;-75
2022/08/09 09:02:50;;;;;;;1999.90;999.90;;;;;;;30.53;25.96;99988.25;10021392;23;20058;-75
2022/08/09 09:06:56;;;;;;;1999.90;999.90;;;;;;;30.66;25.87;99994.38;10026127;23;20098;-75
2022/08/09 09:11:04;;;;;;;1999.90;999.90;;;;;;;30.79;25.58;100008.53;10000139;23;20688;-75
2022/08/09 09:15:06;;;;;;;1999.90;999.90;;;;;;;30.82;25.56;100005.59;9996228;23;20023;-75
2022/08/09 09:19:10;;;;;;;1999.90;999.90;;;;;;;30.91;25.36;99999.53;10024657;23;20035;-75
2022/08/09 09:23:43;;;;;;;1999.90;999.90;;;;;;;31.02;25.34;100000.50;10024498;23;20114;-73
2022/08/09 09:27:58;;;;;;;1999.90;999.90;;;;;;;31.09;25.13;99993.69;9998419;23;20022;-75
2022/08/09 09:32:08;;;;;;;1999.90;999.90;;;;;;;31.05;25.32;99998.41;10019439;23;20030;-74
2022/08/09 09:36:16;;;;;;;1999.90;999.90;;;;;;;31.22;25.33;99997.94;10024727;23;20062;-75
2022/08/09 09:40:24;;;;;;;1999.90;999.90;;;;;;;31.44;25.27;100002.47;10024675;23;20090;-75
2022/08/09 09:44:31;;;;;;;1999.90;999.90;;;;;;;31.52;24.79;100001.81;10026175;23;20061;-75
2022/08/09 09:48:34;;;;;;;1999.90;999.90;;;;;;;31.57;24.85;99992.41;9996057;23;20031;-75
2022/08/09 09:52:47;;;;;;;1999.90;999.90;;;;;;;31.63;25.00;99996.44;10001071;23;20762;-75
2022/08/09 09:56:55;;;;;;;1999.90;999.90;;;;;;;31.71;24.60;99996.63;10041255;23;20105;-74
2022/08/09 10:01:19;;;;;;;1999.90;999.90;;;;;;;31.75;24.48;99986.53;9994649;23;20027;-74
2022/08/09 10:05:59;;;;;;;1999.90;999.90;;;;;;;31.68;24.02;99988.00;10024390;23;20026;-74
2022/08/09 10:10:05;;;;;;;1999.90;999.90;;;;;;;31.65;23.73;99980.19;9998562;23;20086;-74
2022/08/09 10:14:22;;;;;;;1999.90;999.90;;;;;;;31.70;23.85;99994.09;10000859;23;20023;-75
2022/08/09 10:18:31;;;;;;;1999.90;999.90;;;;;;;31.72;23.11;99989.44;9993274;23;20494;-75
2022/08/09 10:22:36;;;;;;;1999.90;999.90;;;;;;;31.76;23.50;99989.06;10023449;23;20450;-75
2022/08/09 10:26:40;;;;;;;1999.90;999.90;;;;;;;31.91;23.42;99988.78;10040153;23;20660;-75
2022/08/09 10:30:42;;;;;;;1999.90;999.90;;;;;;;31.96;23.19;99979.38;10034808;23;20030;-74
2022/08/09 10:35:04;;;;;;;1999.90;999.90;;;;;;;31.98;23.34;99977.41;10024408;23;20054;-75
2022/08/09 10:39:11;;;;;;;1999.90;999.90;;;;;;;32.07;23.47;99971.25;10000467;23;20299;-75
2022/08/09 10:43:17;;;;;;;1999.90;999.90;;;;;;;32.17;22.83;99971.34;10024353;23;20098;-75
2022/08/09 10:47:39;;;;;;;1999.90;999.90;;;;;;;32.28;22.47;99963.22;9995029;23;20030;-75
2022/08/09 10:52:26;;;;;;;1999.90;999.90;;;;;;;32.44;21.93;99970.84;10023491;23;20378;-75
2022/08/09 10:56:32;;;;;;;1999.90;999.90;;;;;;;32.46;21.86;99966.16;10040899;23;20026;-75
2022/08/09 11:00:38;;;;;;;1999.90;999.90;;;;;;;32.51;21.91;99958.59;9996132;23;20022;-73
2022/08/09 11:05:15;;;;;;;1999.90;999.90;;;;;;;32.60;21.82;99962.28;10003662;23;20098;-75
2022/08/09 11:09:39;;;;;;;1999.90;999.90;;;;;;;32.64;22.05;99958.34;10000273;23;20034;-76
2022/08/09 11:14:26;;;;;;;1999.90;999.90;;;;;;;32.79;21.24;99957.00;10000201;23;20026;-76
2022/08/09 11:18:42;;;;;;;;;;;;;;;32.75;22.01;99947.50;9997088;23;20030;-76
2022/08/09 11:22:49;;;;;;;1999.90;999.90;;;;;;;32.82;20.67;99940.63;10027067;23;20660;-75
2022/08/09 11:26:59;;;;;;;1999.90;999.90;;;;;;;32.98;21.07;99951.75;10024932;23;20019;-75
2022/08/09 11:31:46;;;;;;;1999.90;999.90;;;;;;;32.94;20.63;99955.69;9998578;23;20027;-74
2022/08/09 11:35:56;;;;;;;1999.90;999.90;;;;;;;32.97;20.78;99947.34;10025841;23;20105;-75
2022/08/09 11:40:06;;;;;;;1999.90;999.90;;;;;;;32.85;20.78;99934.13;10002043;23;20023;-74
2022/08/09 11:44:08;;;;;;;1999.90;999.90;;;;;;;33.05;21.51;99947.53;9998515;23;20424;-74
2022/08/09 11:48:10;;;;;;;1999.90;999.90;;;;;;;33.13;21.11;99938.75;10020931;23;20402;-74
2022/08/09 11:52:27;;;;;;;1999.90;999.90;;;;;;;33.05;20.32;99934.06;10027809;23;20380;-74
2022/08/09 11:56:48;;;;;;;1999.90;999.90;;;;;;;32.96;20.56;99925.97;10000736;23;20110;-73
2022/08/09 12:00:52;;;;;;;1999.90;999.90;;;;;;;33.16;20.63;99929.56;10036927;23;20031;-74
2022/08/09 12:04:54;;;;;;;1999.90;999.90;;;;;;;33.15;20.49;99927.84;10002631;23;20018;-73
2022/08/09 12:09:10;;;;;;;1999.90;999.90;;;;;;;33.25;20.20;99923.34;10000311;23;20030;-73
2022/08/09 12:13:38;;;;;;;1999.90;999.90;;;;;;;33.38;20.50;99931.19;10025307;23;20027;-74
2022/08/09 12:18:00;;;;;;;1999.90;999.90;;;;;;;33.34;20.48;99922.53;10004354;23;20031;-75
2022/08/09 12:22:05;;;;;;;1999.90;999.90;;;;;;;33.45;20.41;99922.44;9976065;23;20098;-74
2022/08/09 12:26:06;;;;;;;1999.90;999.90;;;;;;;33.41;20.52;99915.63;10027281;23;20050;-74
2022/08/09 12:30:10;;;;;;;1999.90;999.90;;;;;;;33.52;20.10;99912.78;9998708;23;20027;-74
2022/08/09 12:34:34;;;;;;;1999.90;999.90;;;;;;;33.59;20.35;99921.16;10025782;23;20058;-75
2022/08/09 12:38:35;;;;;;;1999.90;999.90;;;;;;;33.34;19.97;99909.06;10027240;23;20022;-74
2022/08/09 12:42:43;;;;;;;1999.90;999.90;;;;;;;33.31;21.04;99909.31;10026948;23;20351;-73
2022/08/09 12:46:48;;;;;;;1999.90;999.90;;;;;;;33.35;21.07;99900.00;10022364;23;20023;-74
2022/08/09 12:50:50;;;;;;;1999.90;999.90;;;;;;;33.24;20.33;99889.34;10027102;23;20311;-74
2022/08/09 12:54:55;;;;;;;1999.90;999.90;;;;;;;33.41;21.37;99890.53;10042124;23;20110;-73
2022/08/09 12:59:22;;;;;;;1999.90;999.90;;;;;;;33.53;21.18;99882.16;10024929;23;20022;-73
2022/08/09 13:03:33;;;;;;;1999.90;999.90;;;;;;;33.48;20.84;99891.66;9995199;23;20106;-74
2022/08/09 13:08:17;;;;;;;1999.90;999.90;;;;;;;33.54;21.11;99883.84;9999283;23;20031;-73
2022/08/09 13:12:47;;;;;;;1999.90;999.90;;;;;;;33.64;20.99;99881.19;10024290;23;20121;-74
2022/08/09 13:17:15;;;;;;;1999.90;999.90;;;;;;;33.75;20.28;99886.41;10020521;23;20038;-74
2022/08/09 13:21:37;;;;;;;1999.90;999.90;;;;;;;33.77;20.42;99878.22;10025284;23;20105;-74
2022/08/09 13:25:58;;;;;;;1999.90;999.90;;;;;;;33.52;20.55;99880.47;10025790;23;20692;-74
2022/08/09 13:30:05;;;;;;;1999.90;999.90;;;;;;;33.45;20.47;99881.19;9999449;23;20026;-74
2022/08/09 13:34:32;;;;;;;1999.90;999.90;;;;;;;33.27;21.42;99871.06;10026777;23;20933;-74
2022/08/09 13:38:36;;;;;;;1999.90;999.90;;;;;;;32.97;21.35;99869.31;10001838;23;20026;-74
2022/08/09 13:42:57;;;;;;;1999.90;999.90;;;;;;;33.09;21.98;99866.50;10026910;23;20031;-75
2022/08/09 13:47:00;;;;;;;1999.90;999.90;;;;;;;32.81;22.30;99863.59;9997695;23;20026;-74
2022/08/09 13:51:22;;;;;;;1999.90;999.90;;;;;;;32.97;22.75;99863.06;10000847;23;20023;-74
2022/08/09 13:55:27;;;;;;;1999.90;999.90;;;;;;;33.12;21.83;99853.63;10027132;23;20148;-74
2022/08/09 13:59:31;;;;;;;1999.90;999.90;;;;;;;33.27;21.50;99854.06;10027140;23;20089;-74
2022/08/09 14:03:42;;;;;;;1999.90;999.90;;;;;;;33.34;21.64;99852.53;9997180;23;20031;-75
2022/08/09 14:08:04;;;;;;;1999.90;999.90;;;;;;;33.49;21.51;99855.66;10026663;23;20023;-75
2022/08/09 14:12:06;;;;;;;1999.90;999.90;;;;;;;33.55;21.39;99845.16;10027655;23;20030;-75
2022/08/09 14:16:19;;;;;;;1999.90;999.90;;;;;;;33.55;21.11;99852.38;10025688;23;20332;-75
2022/08/09 14:20:29;;;;;;;1999.90;999.90;;;;;;;33.61;20.90;99847.31;10026790;23;20033;-75
2022/08/09 14:24:31;;;;;;;1999.90;999.90;;;;;;;33.60;21.19;99844.75;10002159;23;20464;-75
2022/08/09 14:28:34;;;;;;;1999.90;999.90;;;;;;;33.73;20.75;99841.75;10027135;23;20069;-75
2022/08/09 14:32:35;;;;;;;1999.90;999.90;;;;;;;33.75;21.24;99832.50;10021751;23;20026;-74
2022/08/09 14:36:38;;;;;;;1999.90;999.90;;;;;;;33.78;21.52;99840.34;10026185;23;20023;-75
2022/08/09 14:40:43;;;;;;;1999.90;999.90;;;;;;;33.80;21.01;99832.97;9978858;23;20059;-75
2022/08/09 14:45:06;;;;;;;;;;;;;;;33.80;20.62;99834.81;10027147;23;20074;-75
2022/08/09 14:49:27;;;;;;;1999.90;999.90;;;;;;;33.40;20.57;99841.22;10030765;23;20320;-75
2022/08/09 14:53:35;;;;;;;1999.90;999.90;;;;;;;33.44;20.47;99834.56;10029687;23;20026;-75
2022/08/09 14:57:40;;;;;;;1999.90;999.90;;;;;;;33.37;20.75;99836.09;10029366;23;20047;-75
2022/08/09 15:01:44;;;;;;;1999.90;999.90;;;;;;;33.36;20.63;99837.09;10024665;23;20034;-75
2022/08/09 15:05:47;;;;;;;1999.90;999.90;;;;;;;33.56;21.22;99828.00;10029789;23;20023;-75
2022/08/09 15:09:57;;;;;;;1999.90;999.90;;;;;;;33.75;20.06;99831.66;10030733;23;20022;-75
2022/08/09 15:14:11;;;;;;;1999.90;999.90;;;;;;;33.76;19.78;99828.00;10004257;23;20027;-75
2022/08/09 15:18:14;;;;;;;1999.90;999.90;;;;;;;33.77;19.12;99829.72;10000527;23;20455;-76
2022/08/09 15:22:16;;;;;;;1999.90;999.90;;;;;;;33.82;19.57;99827.41;10027753;23;20105;-75
2022/08/09 15:26:22;;;;;;;1999.90;999.90;;;;;;;33.64;18.92;99832.69;10028498;23;20074;-75
2022/08/09 15:30:32;;;;;;;1999.90;999.90;;;;;;;33.56;19.49;99833.38;10024965;23;20121;-75
2022/08/09 15:34:54;;;;;;;1999.90;999.90;;;;;;;33.65;19.74;99827.16;10027507;23;20149;-75
2022/08/09 15:38:57;;;;;;;1999.90;999.90;;;;;;;33.78;20.00;99810.69;10029422;23;20031;-75
2022/08/09 15:43:00;;;;;;;1999.90;999.90;;;;;;;33.86;19.43;99818.06;10004184;23;20029;-75
2022/08/09 15:47:02;;;;;;;1999.90;999.90;;;;;;;33.92;19.62;99815.63;9999512;23;20031;-75
2022/08/09 15:51:05;;;;;;;1999.90;999.90;;;;;;;33.97;19.67;99815.22;10002548;23;20109;-75
2022/08/09 15:55:27;;;;;;;1999.90;999.90;;;;;;;34.00;19.76;99809.53;10027221;23;20027;-75
2022/08/09 15:59:35;;;;;;;1999.90;999.90;;;;;;;33.99;20.05;99807.84;10005803;23;20023;-75
2022/08/09 16:03:37;;;;;;;1999.90;999.90;;;;;;;34.09;19.49;99813.19;9996318;23;20054;-75
2022/08/09 16:07:42;;;;;;;1999.90;999.90;;;;;;;34.13;19.74;99810.06;10001290;23;20101;-76
2022/08/09 16:11:49;;;;;;;1999.90;999.90;;;;;;;34.14;20.01;99805.53;10027412;23;20089;-75
2022/08/09 16:15:58;;;;;;;1999.90;999.90;;;;;;;34.13;19.43;99810.06;9997944;23;20394;-76
2022/08/09 16:20:13;;;;;;;1999.90;999.90;;;;;;;33.85;19.12;99798.38;10028125;23;20031;-75
2022/08/09 16:24:16;;;;;;;1999.90;999.90;;;;;;;33.72;18.60;99810.41;10027297;23;20027;-75
2022/08/09 16:28:34;;;;;;;1999.90;999.90;;;;;;;33.32;19.62;99814.97;10001923;23;20033;-75
2022/08/09 16:36:58;;;;;;;1999.90;999.90;;;;;;;32.26;20.23;99806.59;10025814;23;20023;-74
2022/08/09 16:41:00;;;;;;;1999.90;999.90;;;;;;;31.82;20.66;99802.41;10027049;23;20051;-74
2022/08/09 16:45:05;;;;;;;1999.90;999.90;;;;;;;31.49;21.04;99814.16;10024229;23;20026;-74
2022/08/09 16:49:08;;;;;;;1999.90;999.90;;;;;;;31.21;21.45;99812.91;10001765;23;20065;-74
2022/08/09 16:53:29;;;;;;;1999.90;999.90;;;;;;;30.94;22.02;99808.00;10025912;23;20130;-74
2022/08/09 16:57:35;;;;;;;1999.90;999.90;;;;;;;30.70;22.11;99802.78;10042149;23;20061;-74
2022/08/09 17:01:56;;;;;;;1999.90;999.90;;;;;;;30.50;22.45;99795.47;9996672;23;20041;-74
2022/08/09 17:05:58;;;;;;;1999.90;999.90;;;;;;;30.33;22.40;99810.22;10020349;23;20033;-74
2022/08/09 17:10:20;;;;;;;1999.90;999.90;;;;;;;30.11;22.85;99812.91;10024084;23;20034;-73
2022/08/09 17:14:22;;;;;;;1999.90;999.90;;;;;;;29.96;22.71;99805.06;10001813;23;20034;-74
2022/08/09 17:18:29;;;;;;;1999.90;999.90;;;;;;;29.75;22.48;99814.75;9998298;23;20034;-73
2022/08/09 17:22:31;;;;;;;1999.90;999.90;;;;;;;29.60;22.96;99814.09;10000416;23;20102;-73
2022/08/09 17:26:33;;;;;;;1999.90;999.90;;;;;;;29.51;23.04;99817.50;10027060;23;20549;-73
2022/08/09 17:30:39;;;;;;;1999.90;999.90;;;;;;;29.43;23.15;99817.16;9997252;23;20026;-73
2022/08/09 17:34:48;;;;;;;1999.90;999.90;;;;;;;29.36;23.32;99816.78;9997756;23;20137;-73
2022/08/09 17:39:09;;;;;;;1999.90;999.90;;;;;;;29.27;23.48;99822.84;10025716;23;20376;-73
2022/08/09 17:43:10;;;;;;;1999.90;999.90;;;;;;;29.15;23.71;99821.94;10025687;23;20045;-73
2022/08/09 17:47:32;;;;;;;;;;;;;;;29.04;23.86;99831.72;10021034;23;20352;-74
2022/08/09 17:51:51;;;;;;;1999.90;999.90;;;;;;;28.88;24.20;99819.47;10006938;23;19922;-74
2022/08/09 17:55:52;;;;;;;1999.90;999.90;;;;;;;28.79;24.16;99825.47;10017590;23;20062;-74
2022/08/09 18:00:04;;;;;;;1999.90;999.90;;;;;;;28.70;24.78;99825.25;10023611;23;20026;-74
2022/08/09 18:04:08;;;;;;;1999.90;999.90;;;;;;;28.61;24.65;99831.28;10023334;23;20039;-74
2022/08/09 18:08:13;;;;;;;1999.90;999.90;;;;;;;28.50;24.89;99832.91;10026513;23;20019;-74
2022/08/09 18:12:16;;;;;;;1999.90;999.90;;;;;;;28.40;25.28;99831.88;10000967;23;20105;-74
2022/08/09 18:16:20;;;;;;;1999.90;999.90;;;;;;;28.29;25.66;99832.63;10021839;23;20141;-74
2022/08/09 18:20:31;;;;;;;1999.90;999.90;;;;;;;28.17;26.95;99830.75;10000284;23;20106;-75
2022/08/09 18:24:53;;;;;;;1999.90;999.90;;;;;;;28.03;27.29;99833.56;10000328;23;20438;-76
2022/08/09 18:28:54;;;;;;;1999.90;999.90;;;;;;;27.86;29.33;99848.06;10001983;23;20018;-75
2022/08/09 18:33:16;;;;;;;1999.90;999.90;;;;;;;27.71;27.99;99840.25;10000595;23;20102;-74